Česky Dansk Deutsch English Español Suomi Français Magyar Italiano Nederlands norsk Polski Português svenska Türkçe

 

Het Weer

Urfa (Turkije)

05:50, 22 december 2006 (GMT)

NWNNE
WE
SWSSE
Home            
Urfa Gaziantep Diyarbakir Malatya / Erhac Elazig Aleppo International Airport Kamishli Batman Deir Ezzor Iskenderun Palmyra Erzincan Adana / Incirlik Adana / Sakirpasa Mus Tur-Afb Lattakia Sivas Kayseri / Erkilet Erzurum Tokat Mosul Nevsehir Van

Om een weerknop op uw website of weblog te plaatsen, copieer onderstaande code en plak die in uw pagina. In het eerste vakje staat HTML-code, in het tweede vakje UBB-code.


Add to Google

Details

Wind speed:2 bf, 4 kn, 2.1 m/s, 4.6 miles/h, 7.4 km/h
Wind direction:NW, 310°
Visibilidade global:Maior de 10000 m, 10 km, 32800 ft, 6.2 miles
Clouds:Nuvens dispersas at 4000 ft, 1219 m
Nubolosidade descontinua at 10000 ft, 3048 m
Temperatura:5°C, 41°F
Pressão atmosférica:1018 hPa, 763.6 mmHg, 30.06 inHg, 1.005 atm
METAR:LTCH 220550Z 31004KT 9999 SCT040 BKN100 05/00 Q1018

Snelkoppelingen

Actuele weersinformatie van de hele wereld. Voeg locaties toe met het plus (+) symbool. Deze snelkoppelingen kunnen worden toegevoegd aan Google.

Lid van de Technetium groep

website free tracking
StatCounter NetStat W3C Validator

07-10-2022 02:22:07
astro.technetium.be money.technetium.be phote.technetium.be tafeltennistafel.technetium.be www.ligfiets.net